sensor_id;sensor_type;location;lat;lon;timestamp;pressure;altitude;pressure_sealevel;temperature;humidity
55656;BME280;41530;52.382;5.270;2023-05-23T00:00:10;102154.25;;;22.10;46.99
55656;BME280;41530;52.382;5.270;2023-05-23T00:02:39;102156.53;;;22.04;47.40
55656;BME280;41530;52.382;5.270;2023-05-23T00:05:06;102147.34;;;21.97;47.33
55656;BME280;41530;52.382;5.270;2023-05-23T00:07:33;102155.81;;;22.02;47.14
55656;BME280;41530;52.382;5.270;2023-05-23T00:10:00;102165.00;;;22.00;47.58
55656;BME280;41530;52.382;5.270;2023-05-23T00:12:27;102153.03;;;21.94;47.39
55656;BME280;41530;52.382;5.270;2023-05-23T00:14:54;102159.22;;;21.95;47.68
55656;BME280;41530;52.382;5.270;2023-05-23T00:17:21;102148.81;;;21.92;47.55
55656;BME280;41530;52.382;5.270;2023-05-23T00:19:51;102155.16;;;21.91;47.32
55656;BME280;41530;52.382;5.270;2023-05-23T00:22:18;102157.13;;;21.89;47.72
55656;BME280;41530;52.382;5.270;2023-05-23T00:24:44;102155.72;;;21.85;47.58
55656;BME280;41530;52.382;5.270;2023-05-23T00:27:11;102157.03;;;21.81;47.38
55656;BME280;41530;52.382;5.270;2023-05-23T00:29:38;102159.16;;;21.77;47.43
55656;BME280;41530;52.382;5.270;2023-05-23T00:32:04;102154.09;;;21.74;47.46
55656;BME280;41530;52.382;5.270;2023-05-23T00:34:31;102160.84;;;21.78;47.49
55656;BME280;41530;52.382;5.270;2023-05-23T00:36:58;102160.28;;;21.75;47.80
55656;BME280;41530;52.382;5.270;2023-05-23T00:39:25;102161.44;;;21.72;47.37
55656;BME280;41530;52.382;5.270;2023-05-23T00:41:51;102178.91;;;21.76;47.54
55656;BME280;41530;52.382;5.270;2023-05-23T00:44:19;102173.69;;;21.75;47.40
55656;BME280;41530;52.382;5.270;2023-05-23T00:46:50;102173.44;;;21.68;47.40
55656;BME280;41530;52.382;5.270;2023-05-23T00:49:17;102169.94;;;21.67;47.75
55656;BME280;41530;52.382;5.270;2023-05-23T00:51:46;102176.13;;;21.68;47.47
55656;BME280;41530;52.382;5.270;2023-05-23T00:54:17;102154.56;;;21.60;47.52
55656;BME280;41530;52.382;5.270;2023-05-23T00:56:46;102171.06;;;21.65;47.63
55656;BME280;41530;52.382;5.270;2023-05-23T00:59:14;102182.06;;;21.62;47.46
55656;BME280;41530;52.382;5.270;2023-05-23T01:01:41;102166.41;;;21.57;47.53
55656;BME280;41530;52.382;5.270;2023-05-23T01:04:12;102177.13;;;21.57;47.45
55656;BME280;41530;52.382;5.270;2023-05-23T01:06:39;102174.06;;;21.52;47.62
55656;BME280;41530;52.382;5.270;2023-05-23T01:09:06;102177.59;;;21.53;47.53
55656;BME280;41530;52.382;5.270;2023-05-23T01:11:47;102188.31;;;21.53;47.95
55656;BME280;41530;52.382;5.270;2023-05-23T01:14:32;102178.28;;;21.45;47.83
55656;BME280;41530;52.382;5.270;2023-05-23T01:17:10;102177.91;;;21.40;48.01
55656;BME280;41530;52.382;5.270;2023-05-23T01:22:20;102175.78;;;21.44;47.67
55656;BME280;41530;52.382;5.270;2023-05-23T01:24:53;102178.06;;;21.39;48.32
55656;BME280;41530;52.382;5.270;2023-05-23T01:27:48;102191.72;;;21.36;48.16
55656;BME280;41530;52.382;5.270;2023-05-23T01:30:18;102173.00;;;21.26;48.13
55656;BME280;41530;52.382;5.270;2023-05-23T01:32:50;102184.69;;;21.25;48.06
55656;BME280;41530;52.382;5.270;2023-05-23T01:35:25;102185.28;;;21.28;47.84
55656;BME280;41530;52.382;5.270;2023-05-23T01:37:54;102184.56;;;21.26;47.84
55656;BME280;41530;52.382;5.270;2023-05-23T01:40:24;102184.13;;;21.21;48.09
55656;BME280;41530;52.382;5.270;2023-05-23T01:42:52;102187.66;;;21.22;47.96
55656;BME280;41530;52.382;5.270;2023-05-23T01:45:20;102186.94;;;21.20;47.93
55656;BME280;41530;52.382;5.270;2023-05-23T01:47:49;102199.78;;;21.16;48.18
55656;BME280;41530;52.382;5.270;2023-05-23T01:50:17;102189.19;;;21.15;47.97
55656;BME280;41530;52.382;5.270;2023-05-23T01:52:45;102176.38;;;21.09;47.92
55656;BME280;41530;52.382;5.270;2023-05-23T01:55:13;102194.25;;;21.18;47.94
55656;BME280;41530;52.382;5.270;2023-05-23T01:57:42;102178.06;;;21.10;47.60
55656;BME280;41530;52.382;5.270;2023-05-23T02:00:09;102195.81;;;21.11;47.55
55656;BME280;41530;52.382;5.270;2023-05-23T02:02:37;102196.66;;;21.11;47.75
55656;BME280;41530;52.382;5.270;2023-05-23T02:05:04;102177.63;;;21.05;47.76
55656;BME280;41530;52.382;5.270;2023-05-23T02:07:31;102184.69;;;21.06;47.96
55656;BME280;41530;52.382;5.270;2023-05-23T02:09:58;102177.38;;;20.98;47.69
55656;BME280;41530;52.382;5.270;2023-05-23T02:12:25;102195.53;;;21.04;47.92
55656;BME280;41530;52.382;5.270;2023-05-23T02:14:53;102199.03;;;21.05;48.13
55656;BME280;41530;52.382;5.270;2023-05-23T02:17:20;102209.75;;;21.05;47.96
55656;BME280;41530;52.382;5.270;2023-05-23T02:19:47;102210.06;;;21.02;47.64
55656;BME280;41530;52.382;5.270;2023-05-23T02:22:14;102205.13;;;20.97;47.89
55656;BME280;41530;52.382;5.270;2023-05-23T02:24:41;102214.25;;;21.04;47.53
55656;BME280;41530;52.382;5.270;2023-05-23T02:27:08;102219.91;;;21.01;47.84
55656;BME280;41530;52.382;5.270;2023-05-23T02:29:34;102221.88;;;20.99;47.92
55656;BME280;41530;52.382;5.270;2023-05-23T02:35:23;102227.91;;;20.91;47.49
55656;BME280;41530;52.382;5.270;2023-05-23T02:37:50;102227.25;;;20.89;47.64
55656;BME280;41530;52.382;5.270;2023-05-23T02:40:17;102233.44;;;20.90;47.97
55656;BME280;41530;52.382;5.270;2023-05-23T02:42:43;102244.81;;;20.92;47.72
55656;BME280;41530;52.382;5.270;2023-05-23T02:45:10;102231.19;;;20.85;47.51
55656;BME280;41530;52.382;5.270;2023-05-23T02:47:37;102243.44;;;20.88;47.54
55656;BME280;41530;52.382;5.270;2023-05-23T02:50:04;102235.69;;;20.85;47.79
55656;BME280;41530;52.382;5.270;2023-05-23T02:52:31;102233.13;;;20.83;47.59
55656;BME280;41530;52.382;5.270;2023-05-23T02:54:57;102245.41;;;20.86;47.67
55656;BME280;41530;52.382;5.270;2023-05-23T02:57:24;102233.41;;;20.80;47.56
55656;BME280;41530;52.382;5.270;2023-05-23T02:59:51;102233.72;;;20.77;47.78
55656;BME280;41530;52.382;5.270;2023-05-23T03:02:17;102226.50;;;20.78;47.47
55656;BME280;41530;52.382;5.270;2023-05-23T03:04:44;102240.72;;;20.78;47.55
55656;BME280;41530;52.382;5.270;2023-05-23T03:07:11;102243.41;;;20.78;47.61
55656;BME280;41530;52.382;5.270;2023-05-23T03:09:53;102240.59;;;20.80;47.62
55656;BME280;41530;52.382;5.270;2023-05-23T03:12:20;102246.38;;;20.75;47.49
55656;BME280;41530;52.382;5.270;2023-05-23T03:14:46;102247.63;;;20.71;47.13
55656;BME280;41530;52.382;5.270;2023-05-23T03:17:13;102244.38;;;20.68;47.29
55656;BME280;41530;52.382;5.270;2023-05-23T03:19:40;102251.41;;;20.69;47.44
55656;BME280;41530;52.382;5.270;2023-05-23T03:22:06;102245.50;;;20.65;47.50
55656;BME280;41530;52.382;5.270;2023-05-23T03:24:33;102254.22;;;20.67;47.33
55656;BME280;41530;52.382;5.270;2023-05-23T03:27:00;102246.19;;;20.57;47.49
55656;BME280;41530;52.382;5.270;2023-05-23T03:29:27;102252.13;;;20.61;47.32
55656;BME280;41530;52.382;5.270;2023-05-23T03:31:54;102257.59;;;20.59;47.52
55656;BME280;41530;52.382;5.270;2023-05-23T03:34:20;102254.22;;;20.57;47.52
55656;BME280;41530;52.382;5.270;2023-05-23T03:36:49;102250.13;;;20.53;47.55
55656;BME280;41530;52.382;5.270;2023-05-23T03:39:16;102251.09;;;20.52;47.71
55656;BME280;41530;52.382;5.270;2023-05-23T03:41:43;102252.25;;;20.50;47.44
55656;BME280;41530;52.382;5.270;2023-05-23T03:44:10;102260.53;;;20.47;47.43
55656;BME280;41530;52.382;5.270;2023-05-23T03:46:36;102256.44;;;20.43;47.28
55656;BME280;41530;52.382;5.270;2023-05-23T03:49:05;102267.00;;;20.44;47.59
55656;BME280;41530;52.382;5.270;2023-05-23T03:51:32;102274.28;;;20.42;47.53
55656;BME280;41530;52.382;5.270;2023-05-23T03:53:59;102269.09;;;20.41;47.41
55656;BME280;41530;52.382;5.270;2023-05-23T03:56:26;102265.84;;;20.37;47.31
55656;BME280;41530;52.382;5.270;2023-05-23T03:58:52;102281.72;;;20.39;47.39
55656;BME280;41530;52.382;5.270;2023-05-23T04:01:19;102279.22;;;20.37;47.35
55656;BME280;41530;52.382;5.270;2023-05-23T04:03:46;102286.50;;;20.35;47.39
55656;BME280;41530;52.382;5.270;2023-05-23T04:06:13;102283.38;;;20.30;47.29
55656;BME280;41530;52.382;5.270;2023-05-23T04:08:40;102285.19;;;20.29;47.20
55656;BME280;41530;52.382;5.270;2023-05-23T04:11:07;102295.75;;;20.31;47.49
55656;BME280;41530;52.382;5.270;2023-05-23T04:13:34;102293.78;;;20.23;47.33
55656;BME280;41530;52.382;5.270;2023-05-23T04:16:00;102300.66;;;20.26;47.35
55656;BME280;41530;52.382;5.270;2023-05-23T04:18:31;102305.28;;;20.24;47.22
55656;BME280;41530;52.382;5.270;2023-05-23T04:21:04;102298.91;;;20.15;47.52
55656;BME280;41530;52.382;5.270;2023-05-23T04:23:31;102299.63;;;20.17;47.47
55656;BME280;41530;52.382;5.270;2023-05-23T04:25:58;102307.31;;;20.11;47.29
55656;BME280;41530;52.382;5.270;2023-05-23T04:28:26;102322.13;;;20.15;47.17
55656;BME280;41530;52.382;5.270;2023-05-23T04:30:53;102315.22;;;20.12;47.04
55656;BME280;41530;52.382;5.270;2023-05-23T04:33:20;102305.06;;;20.06;46.95
55656;BME280;41530;52.382;5.270;2023-05-23T04:35:47;102320.69;;;20.11;46.86
55656;BME280;41530;52.382;5.270;2023-05-23T04:38:14;102309.69;;;20.04;46.87
55656;BME280;41530;52.382;5.270;2023-05-23T04:40:42;102316.41;;;19.99;46.73
55656;BME280;41530;52.382;5.270;2023-05-23T04:43:09;102326.84;;;20.02;46.67
55656;BME280;41530;52.382;5.270;2023-05-23T04:45:39;102336.94;;;19.98;46.56
55656;BME280;41530;52.382;5.270;2023-05-23T04:48:07;102335.81;;;20.01;46.47
55656;BME280;41530;52.382;5.270;2023-05-23T04:50:34;102337.78;;;19.99;46.49
55656;BME280;41530;52.382;5.270;2023-05-23T04:53:01;102332.84;;;19.94;46.32
55656;BME280;41530;52.382;5.270;2023-05-23T04:55:28;102348.16;;;19.92;46.35
55656;BME280;41530;52.382;5.270;2023-05-23T04:57:54;102333.47;;;19.86;46.39
55656;BME280;41530;52.382;5.270;2023-05-23T05:00:21;102326.72;;;19.82;46.40
55656;BME280;41530;52.382;5.270;2023-05-23T05:02:48;102340.78;;;19.84;46.23
55656;BME280;41530;52.382;5.270;2023-05-23T05:05:15;102339.97;;;19.84;46.14
55656;BME280;41530;52.382;5.270;2023-05-23T05:07:42;102359.63;;;19.83;46.18
55656;BME280;41530;52.382;5.270;2023-05-23T05:10:09;102361.59;;;19.81;46.03
55656;BME280;41530;52.382;5.270;2023-05-23T05:12:45;102348.72;;;19.75;46.09
55656;BME280;41530;52.382;5.270;2023-05-23T05:15:18;102369.59;;;19.81;46.06
55656;BME280;41530;52.382;5.270;2023-05-23T05:17:45;102373.34;;;19.78;45.90
55656;BME280;41530;52.382;5.270;2023-05-23T05:20:15;102378.97;;;19.75;45.90
55656;BME280;41530;52.382;5.270;2023-05-23T05:22:42;102387.22;;;19.72;45.73
55656;BME280;41530;52.382;5.270;2023-05-23T05:25:10;102384.81;;;19.69;45.82
55656;BME280;41530;52.382;5.270;2023-05-23T05:27:38;102389.88;;;19.72;46.38
55656;BME280;41530;52.382;5.270;2023-05-23T05:30:06;102384.72;;;19.60;46.13
55656;BME280;41530;52.382;5.270;2023-05-23T05:32:33;102398.81;;;19.62;46.01
55656;BME280;41530;52.382;5.270;2023-05-23T05:35:00;102401.47;;;19.62;46.28
55656;BME280;41530;52.382;5.270;2023-05-23T05:37:27;102404.00;;;19.63;46.13
55656;BME280;41530;52.382;5.270;2023-05-23T05:39:54;102403.91;;;19.65;46.10
55656;BME280;41530;52.382;5.270;2023-05-23T05:42:22;102406.09;;;19.60;46.11
55656;BME280;41530;52.382;5.270;2023-05-23T05:44:48;102414.09;;;19.60;46.17
55656;BME280;41530;52.382;5.270;2023-05-23T05:47:15;102415.91;;;19.59;46.00
55656;BME280;41530;52.382;5.270;2023-05-23T05:49:42;102419.84;;;19.55;46.12
55656;BME280;41530;52.382;5.270;2023-05-23T05:52:09;102422.38;;;19.56;46.10
55656;BME280;41530;52.382;5.270;2023-05-23T05:54:35;102403.94;;;19.53;46.36
55656;BME280;41530;52.382;5.270;2023-05-23T05:57:03;102417.16;;;19.55;46.10
55656;BME280;41530;52.382;5.270;2023-05-23T05:59:30;102420.81;;;19.54;46.37
55656;BME280;41530;52.382;5.270;2023-05-23T06:01:58;102407.72;;;19.51;46.33
55656;BME280;41530;52.382;5.270;2023-05-23T06:04:24;102420.81;;;19.54;46.36
55656;BME280;41530;52.382;5.270;2023-05-23T06:06:51;102414.00;;;19.50;46.66
55656;BME280;41530;52.382;5.270;2023-05-23T06:09:18;102425.66;;;19.49;46.73
55656;BME280;41530;52.382;5.270;2023-05-23T06:11:45;102427.97;;;19.53;46.80
55656;BME280;41530;52.382;5.270;2023-05-23T06:14:12;102421.06;;;19.51;46.75
55656;BME280;41530;52.382;5.270;2023-05-23T06:16:39;102419.56;;;19.47;46.79
55656;BME280;41530;52.382;5.270;2023-05-23T06:19:06;102425.66;;;19.49;46.80
55656;BME280;41530;52.382;5.270;2023-05-23T06:21:33;102420.41;;;19.47;46.63
55656;BME280;41530;52.382;5.270;2023-05-23T06:24:01;102418.00;;;19.44;47.13
55656;BME280;41530;52.382;5.270;2023-05-23T06:26:28;102431.22;;;19.46;47.11
55656;BME280;41530;52.382;5.270;2023-05-23T06:28:54;102434.72;;;19.46;47.16
55656;BME280;41530;52.382;5.270;2023-05-23T06:31:21;102436.69;;;19.44;47.32
55656;BME280;41530;52.382;5.270;2023-05-23T06:33:48;102442.88;;;19.45;47.32
55656;BME280;41530;52.382;5.270;2023-05-23T06:36:14;102441.78;;;19.47;47.64
55656;BME280;41530;52.382;5.270;2023-05-23T06:38:41;102451.88;;;19.55;47.74
55656;BME280;41530;52.382;5.270;2023-05-23T06:41:07;102445.75;;;19.64;48.04
55656;BME280;41530;52.382;5.270;2023-05-23T06:43:34;102447.78;;;19.72;48.09
55656;BME280;41530;52.382;5.270;2023-05-23T06:46:01;102449.00;;;19.79;48.05
55656;BME280;41530;52.382;5.270;2023-05-23T06:48:27;102445.94;;;19.83;48.03
55656;BME280;41530;52.382;5.270;2023-05-23T06:50:54;102446.00;;;19.93;48.07
55656;BME280;41530;52.382;5.270;2023-05-23T06:53:21;102451.66;;;20.00;48.08
55656;BME280;41530;52.382;5.270;2023-05-23T06:55:47;102438.91;;;20.03;47.97
55656;BME280;41530;52.382;5.270;2023-05-23T06:58:14;102451.75;;;20.09;48.01
55656;BME280;41530;52.382;5.270;2023-05-23T07:00:41;102437.69;;;20.07;47.86
55656;BME280;41530;52.382;5.270;2023-05-23T07:03:08;102448.91;;;20.22;48.14
55656;BME280;41530;52.382;5.270;2023-05-23T07:05:35;102460.03;;;20.27;48.21
55656;BME280;41530;52.382;5.270;2023-05-23T07:08:06;102448.22;;;20.29;48.07
55656;BME280;41530;52.382;5.270;2023-05-23T07:10:32;102453.31;;;20.33;48.28
55656;BME280;41530;52.382;5.270;2023-05-23T07:13:00;102465.19;;;20.40;48.24
55656;BME280;41530;52.382;5.270;2023-05-23T07:15:27;102468.34;;;20.45;48.08
55656;BME280;41530;52.382;5.270;2023-05-23T07:17:54;102471.72;;;20.47;48.09
55656;BME280;41530;52.382;5.270;2023-05-23T07:20:21;102474.00;;;20.51;48.32
55656;BME280;41530;52.382;5.270;2023-05-23T07:22:47;102479.81;;;20.56;48.12
55656;BME280;41530;52.382;5.270;2023-05-23T07:25:17;102480.53;;;20.58;48.13
55656;BME280;41530;52.382;5.270;2023-05-23T07:27:44;102476.63;;;20.62;48.21
55656;BME280;41530;52.382;5.270;2023-05-23T07:30:11;102486.34;;;20.63;48.08
55656;BME280;41530;52.382;5.270;2023-05-23T07:32:37;102480.56;;;20.68;48.38
55656;BME280;41530;52.382;5.270;2023-05-23T07:35:04;102469.16;;;20.66;48.04
55656;BME280;41530;52.382;5.270;2023-05-23T07:37:31;102480.19;;;20.73;48.09
55656;BME280;41530;52.382;5.270;2023-05-23T07:39:59;102475.41;;;20.76;48.17
55656;BME280;41530;52.382;5.270;2023-05-23T07:42:26;102478.66;;;20.80;48.16
55656;BME280;41530;52.382;5.270;2023-05-23T07:44:53;102489.09;;;20.83;47.82
55656;BME280;41530;52.382;5.270;2023-05-23T07:47:19;102487.72;;;20.88;47.91
55656;BME280;41530;52.382;5.270;2023-05-23T07:49:46;102499.81;;;20.92;48.03
55656;BME280;41530;52.382;5.270;2023-05-23T07:52:13;102493.38;;;20.95;47.95
55656;BME280;41530;52.382;5.270;2023-05-23T07:54:39;102490.69;;;20.95;47.82
55656;BME280;41530;52.382;5.270;2023-05-23T07:57:06;102486.91;;;20.97;47.59
55656;BME280;41530;52.382;5.270;2023-05-23T07:59:32;102501.84;;;21.00;47.78
55656;BME280;41530;52.382;5.270;2023-05-23T08:01:59;102497.09;;;21.04;48.04
55656;BME280;41530;52.382;5.270;2023-05-23T08:04:26;102497.38;;;21.10;47.78
55656;BME280;41530;52.382;5.270;2023-05-23T08:06:53;102493.97;;;21.08;47.49
55656;BME280;41530;52.382;5.270;2023-05-23T08:09:31;102495.94;;;21.06;47.82
55656;BME280;41530;52.382;5.270;2023-05-23T08:11:57;102504.03;;;21.16;47.61
55656;BME280;41530;52.382;5.270;2023-05-23T08:14:25;102501.19;;;21.17;47.83
55656;BME280;41530;52.382;5.270;2023-05-23T08:17:14;102510.41;;;21.24;47.90
55656;BME280;41530;52.382;5.270;2023-05-23T08:19:41;102495.34;;;21.23;47.68
55656;BME280;41530;52.382;5.270;2023-05-23T08:22:07;102508.19;;;21.29;47.70
55656;BME280;41530;52.382;5.270;2023-05-23T08:24:34;102509.72;;;21.32;47.62
55656;BME280;41530;52.382;5.270;2023-05-23T08:27:01;102515.78;;;21.34;47.65
55656;BME280;41530;52.382;5.270;2023-05-23T08:29:28;102517.50;;;21.35;47.42
55656;BME280;41530;52.382;5.270;2023-05-23T08:31:54;102520.03;;;21.37;47.49
55656;BME280;41530;52.382;5.270;2023-05-23T08:34:21;102515.66;;;21.36;47.35
55656;BME280;41530;52.382;5.270;2023-05-23T08:36:48;102519.50;;;21.43;47.84
55656;BME280;41530;52.382;5.270;2023-05-23T08:39:14;102520.91;;;21.47;47.59
55656;BME280;41530;52.382;5.270;2023-05-23T08:41:41;102514.16;;;21.52;47.72
55656;BME280;41530;52.382;5.270;2023-05-23T08:44:08;102522.91;;;21.54;47.43
55656;BME280;41530;52.382;5.270;2023-05-23T08:46:43;102529.66;;;21.58;47.66
55656;BME280;41530;52.382;5.270;2023-05-23T08:49:12;102521.78;;;21.57;47.45
55656;BME280;41530;52.382;5.270;2023-05-23T08:51:41;102535.59;;;21.62;47.26
55656;BME280;41530;52.382;5.270;2023-05-23T08:54:09;102523.06;;;21.62;47.50
55656;BME280;41530;52.382;5.270;2023-05-23T08:56:42;102537.28;;;21.63;47.63
55656;BME280;41530;52.382;5.270;2023-05-23T08:59:09;102529.97;;;21.65;47.57
55656;BME280;41530;52.382;5.270;2023-05-23T09:01:37;102537.03;;;21.66;47.38
55656;BME280;41530;52.382;5.270;2023-05-23T09:04:05;102542.13;;;21.69;47.31
55656;BME280;41530;52.382;5.270;2023-05-23T09:06:33;102549.16;;;21.70;47.44
55656;BME280;41530;52.382;5.270;2023-05-23T09:09:00;102547.47;;;21.69;47.45
55656;BME280;41530;52.382;5.270;2023-05-23T09:11:27;102562.41;;;21.72;47.42
55656;BME280;41530;52.382;5.270;2023-05-23T09:13:53;102560.44;;;21.74;47.42
55656;BME280;41530;52.382;5.270;2023-05-23T09:16:21;102548.03;;;21.73;47.34
55656;BME280;41530;52.382;5.270;2023-05-23T09:18:48;102558.59;;;21.74;47.20
55656;BME280;41530;52.382;5.270;2023-05-23T09:21:15;102558.34;;;21.77;47.17
55656;BME280;41530;52.382;5.270;2023-05-23T09:23:42;102561.88;;;21.78;47.18
55656;BME280;41530;52.382;5.270;2023-05-23T09:26:10;102568.91;;;21.79;47.06
55656;BME280;41530;52.382;5.270;2023-05-23T09:28:40;102563.69;;;21.77;47.29
55656;BME280;41530;52.382;5.270;2023-05-23T09:31:08;102569.50;;;21.82;46.99
55656;BME280;41530;52.382;5.270;2023-05-23T09:33:44;102570.34;;;21.83;47.35
55656;BME280;41530;52.382;5.270;2023-05-23T09:36:12;102574.56;;;21.85;47.47
55656;BME280;41530;52.382;5.270;2023-05-23T09:38:40;102568.34;;;21.85;47.26
55656;BME280;41530;52.382;5.270;2023-05-23T09:41:08;102569.91;;;21.87;47.08
55656;BME280;41530;52.382;5.270;2023-05-23T09:43:38;102589.25;;;21.91;47.19
55656;BME280;41530;52.382;5.270;2023-05-23T09:46:06;102587.41;;;21.91;46.94
55656;BME280;41530;52.382;5.270;2023-05-23T09:48:33;102579.38;;;21.91;47.23
55656;BME280;41530;52.382;5.270;2023-05-23T09:51:07;102585.44;;;21.93;46.84
55656;BME280;41530;52.382;5.270;2023-05-23T09:53:35;102587.16;;;21.94;47.07
55656;BME280;41530;52.382;5.270;2023-05-23T09:56:03;102585.31;;;21.95;46.96
55656;BME280;41530;52.382;5.270;2023-05-23T09:58:30;102580.09;;;21.93;47.22
55656;BME280;41530;52.382;5.270;2023-05-23T10:00:59;102585.00;;;21.98;47.21
55656;BME280;41530;52.382;5.270;2023-05-23T10:03:49;102591.13;;;22.00;46.96
55656;BME280;41530;52.382;5.270;2023-05-23T10:06:27;102588.44;;;22.00;47.14
55656;BME280;41530;52.382;5.270;2023-05-23T10:09:04;102578.44;;;22.02;47.17
55656;BME280;41530;52.382;5.270;2023-05-23T10:14:00;102589.00;;;22.03;47.02
55656;BME280;41530;52.382;5.270;2023-05-23T10:17:06;102594.09;;;22.07;47.11
55656;BME280;41530;52.382;5.270;2023-05-23T10:19:43;102590.44;;;22.08;47.27
55656;BME280;41530;52.382;5.270;2023-05-23T10:22:13;102587.75;;;22.08;47.14
55656;BME280;41530;52.382;5.270;2023-05-23T10:24:43;102594.50;;;22.12;47.05
55656;BME280;41530;52.382;5.270;2023-05-23T10:27:10;102602.41;;;22.13;46.85
55656;BME280;41530;52.382;5.270;2023-05-23T10:29:37;102592.81;;;22.11;47.10
55656;BME280;41530;52.382;5.270;2023-05-23T10:32:04;102601.56;;;22.13;46.85
55656;BME280;41530;52.382;5.270;2023-05-23T10:35:00;102600.44;;;22.15;47.02
55656;BME280;41530;52.382;5.270;2023-05-23T10:37:52;102598.63;;;22.16;46.93
55656;BME280;41530;52.382;5.270;2023-05-23T10:40:33;102604.81;;;22.16;47.14
55656;BME280;41530;52.382;5.270;2023-05-23T10:45:44;102607.38;;;22.18;46.99
55656;BME280;41530;52.382;5.270;2023-05-23T10:51:07;102600.31;;;22.17;46.86
55656;BME280;41530;52.382;5.270;2023-05-23T10:53:38;102601.75;;;22.21;46.80
55656;BME280;41530;52.382;5.270;2023-05-23T10:56:09;102612.31;;;22.22;46.75
55656;BME280;41530;52.382;5.270;2023-05-23T10:58:38;102607.94;;;22.21;47.05
55656;BME280;41530;52.382;5.270;2023-05-23T11:01:06;102603.44;;;22.22;47.02
55656;BME280;41530;52.382;5.270;2023-05-23T11:03:49;102608.22;;;22.28;46.98
55656;BME280;41530;52.382;5.270;2023-05-23T11:06:40;102606.38;;;22.28;46.71
55656;BME280;41530;52.382;5.270;2023-05-23T11:09:11;102616.97;;;22.30;47.12
55656;BME280;41530;52.382;5.270;2023-05-23T11:16:57;102620.38;;;22.32;46.72
55656;BME280;41530;52.382;5.270;2023-05-23T11:19:28;102597.22;;;22.31;46.92
55656;BME280;41530;52.382;5.270;2023-05-23T11:22:01;102604.00;;;22.35;46.92
55656;BME280;41530;52.382;5.270;2023-05-23T11:25:07;102618.13;;;22.37;46.84
55656;BME280;41530;52.382;5.270;2023-05-23T11:27:36;102611.06;;;22.36;46.76
55656;BME280;41530;52.382;5.270;2023-05-23T11:30:10;102613.44;;;22.39;46.65
55656;BME280;41530;52.382;5.270;2023-05-23T11:32:39;102621.63;;;22.37;46.90
55656;BME280;41530;52.382;5.270;2023-05-23T11:35:09;102613.44;;;22.39;46.90
55656;BME280;41530;52.382;5.270;2023-05-23T11:37:37;102617.81;;;22.40;46.80
55656;BME280;41530;52.382;5.270;2023-05-23T11:40:27;102633.63;;;22.43;46.94
55656;BME280;41530;52.382;5.270;2023-05-23T11:42:54;102621.91;;;22.44;47.06
55656;BME280;41530;52.382;5.270;2023-05-23T11:45:22;102619.94;;;22.46;46.54
55656;BME280;41530;52.382;5.270;2023-05-23T11:47:49;102635.19;;;22.46;46.70
55656;BME280;41530;52.382;5.270;2023-05-23T11:50:16;102624.19;;;22.49;46.87
55656;BME280;41530;52.382;5.270;2023-05-23T11:52:43;102618.97;;;22.47;46.74
55656;BME280;41530;52.382;5.270;2023-05-23T11:55:10;102624.06;;;22.50;46.61
55656;BME280;41530;52.382;5.270;2023-05-23T11:57:37;102619.50;;;22.51;46.83
55656;BME280;41530;52.382;5.270;2023-05-23T12:00:06;102614.44;;;22.48;46.69
55656;BME280;41530;52.382;5.270;2023-05-23T12:02:38;102619.38;;;22.52;46.56
55656;BME280;41530;52.382;5.270;2023-05-23T12:05:10;102617.38;;;22.54;46.83
55656;BME280;41530;52.382;5.270;2023-05-23T12:07:46;102614.72;;;22.54;46.96
55656;BME280;41530;52.382;5.270;2023-05-23T12:10:14;102625.16;;;22.57;46.80
55656;BME280;41530;52.382;5.270;2023-05-23T12:12:47;102621.78;;;22.55;46.80
55656;BME280;41530;52.382;5.270;2023-05-23T12:15:14;102624.31;;;22.57;46.82
55656;BME280;41530;52.382;5.270;2023-05-23T12:17:44;102621.34;;;22.60;46.63
55656;BME280;41530;52.382;5.270;2023-05-23T12:20:12;102621.50;;;22.58;46.59
55656;BME280;41530;52.382;5.270;2023-05-23T12:22:38;102619.53;;;22.60;46.84
55656;BME280;41530;52.382;5.270;2023-05-23T12:25:08;102616.84;;;22.60;46.60
55656;BME280;41530;52.382;5.270;2023-05-23T12:27:40;102616.56;;;22.63;46.64
55656;BME280;41530;52.382;5.270;2023-05-23T12:30:13;102624.59;;;22.63;46.55
55656;BME280;41530;52.382;5.270;2023-05-23T12:32:44;102622.75;;;22.64;46.86
55656;BME280;41530;52.382;5.270;2023-05-23T12:35:15;102615.53;;;22.64;46.63
55656;BME280;41530;52.382;5.270;2023-05-23T12:37:45;102626.84;;;22.68;46.71
55656;BME280;41530;52.382;5.270;2023-05-23T12:40:15;102631.94;;;22.71;46.56
55656;BME280;41530;52.382;5.270;2023-05-23T12:45:14;102632.63;;;22.73;46.75
55656;BME280;41530;52.382;5.270;2023-05-23T12:47:41;102629.97;;;22.73;46.75
55656;BME280;41530;52.382;5.270;2023-05-23T12:50:08;102626.16;;;22.75;46.72
55656;BME280;41530;52.382;5.270;2023-05-23T12:52:37;102647.34;;;22.79;46.72
55656;BME280;41530;52.382;5.270;2023-05-23T12:55:07;102639.16;;;22.80;46.79
55656;BME280;41530;52.382;5.270;2023-05-23T12:57:34;102642.94;;;22.78;46.83
55656;BME280;41530;52.382;5.270;2023-05-23T13:00:01;102639.28;;;22.79;46.71
55656;BME280;41530;52.382;5.270;2023-05-23T13:02:28;102650.28;;;22.75;46.76
55656;BME280;41530;52.382;5.270;2023-05-23T13:04:55;102642.41;;;22.84;46.81
55656;BME280;41530;52.382;5.270;2023-05-23T13:07:22;102635.63;;;22.80;46.70
55656;BME280;41530;52.382;5.270;2023-05-23T13:09:50;102656.38;;;22.87;46.84
55656;BME280;41530;52.382;5.270;2023-05-23T13:12:17;102648.63;;;22.84;46.89
55656;BME280;41530;52.382;5.270;2023-05-23T13:14:43;102655.53;;;22.87;46.76
55656;BME280;41530;52.382;5.270;2023-05-23T13:17:10;102650.75;;;22.90;46.72
55656;BME280;41530;52.382;5.270;2023-05-23T13:19:38;102654.25;;;22.91;46.53